sensor_id;sensor_type;location;lat;lon;timestamp;temperature;humidity
17092;DHT22;8661;45.700;4.880;2023-09-12T00:00:39;22.90;66.60
17092;DHT22;8661;45.700;4.880;2023-09-12T00:03:05;22.90;66.70
17092;DHT22;8661;45.700;4.880;2023-09-12T00:05:32;22.80;66.70
17092;DHT22;8661;45.700;4.880;2023-09-12T00:08:00;22.80;66.90
17092;DHT22;8661;45.700;4.880;2023-09-12T00:10:27;22.80;66.90
17092;DHT22;8661;45.700;4.880;2023-09-12T00:12:55;22.70;66.90
17092;DHT22;8661;45.700;4.880;2023-09-12T00:15:22;22.80;67.10
17092;DHT22;8661;45.700;4.880;2023-09-12T00:17:50;22.80;67.10
17092;DHT22;8661;45.700;4.880;2023-09-12T00:20:17;22.70;67.10
17092;DHT22;8661;45.700;4.880;2023-09-12T00:22:44;22.70;67.30
17092;DHT22;8661;45.700;4.880;2023-09-12T00:25:11;22.60;67.60
17092;DHT22;8661;45.700;4.880;2023-09-12T00:27:38;22.60;67.80
17092;DHT22;8661;45.700;4.880;2023-09-12T00:30:05;22.60;68.00
17092;DHT22;8661;45.700;4.880;2023-09-12T00:32:32;22.50;68.20
17092;DHT22;8661;45.700;4.880;2023-09-12T00:35:01;22.40;68.30
17092;DHT22;8661;45.700;4.880;2023-09-12T00:37:28;22.40;68.50
17092;DHT22;8661;45.700;4.880;2023-09-12T00:39:55;22.40;68.80
17092;DHT22;8661;45.700;4.880;2023-09-12T00:42:25;22.40;68.90
17092;DHT22;8661;45.700;4.880;2023-09-12T00:44:51;22.40;69.00
17092;DHT22;8661;45.700;4.880;2023-09-12T00:47:19;22.50;68.80
17092;DHT22;8661;45.700;4.880;2023-09-12T00:49:48;22.50;68.80
17092;DHT22;8661;45.700;4.880;2023-09-12T00:52:17;22.50;68.70
17092;DHT22;8661;45.700;4.880;2023-09-12T00:54:44;22.60;68.90
17092;DHT22;8661;45.700;4.880;2023-09-12T00:57:11;22.50;69.00
17092;DHT22;8661;45.700;4.880;2023-09-12T00:59:38;22.50;69.10
17092;DHT22;8661;45.700;4.880;2023-09-12T01:02:06;22.50;69.10
17092;DHT22;8661;45.700;4.880;2023-09-12T01:04:33;22.50;69.20
17092;DHT22;8661;45.700;4.880;2023-09-12T01:07:02;22.50;69.20
17092;DHT22;8661;45.700;4.880;2023-09-12T01:09:30;22.50;69.30
17092;DHT22;8661;45.700;4.880;2023-09-12T01:11:57;22.50;69.50
17092;DHT22;8661;45.700;4.880;2023-09-12T01:14:25;22.40;69.60
17092;DHT22;8661;45.700;4.880;2023-09-12T01:16:52;22.40;69.60
17092;DHT22;8661;45.700;4.880;2023-09-12T01:19:19;22.40;69.80
17092;DHT22;8661;45.700;4.880;2023-09-12T01:22:21;22.40;70.10
17092;DHT22;8661;45.700;4.880;2023-09-12T01:25:21;22.30;70.30
17092;DHT22;8661;45.700;4.880;2023-09-12T01:28:00;22.30;70.50
17092;DHT22;8661;45.700;4.880;2023-09-12T01:30:31;22.20;70.60
17092;DHT22;8661;45.700;4.880;2023-09-12T01:32:59;22.20;70.80
17092;DHT22;8661;45.700;4.880;2023-09-12T01:35:26;22.20;70.90
17092;DHT22;8661;45.700;4.880;2023-09-12T01:37:54;22.10;71.10
17092;DHT22;8661;45.700;4.880;2023-09-12T01:40:27;22.10;71.40
17092;DHT22;8661;45.700;4.880;2023-09-12T01:42:57;22.10;71.60
17092;DHT22;8661;45.700;4.880;2023-09-12T01:45:25;22.00;71.60
17092;DHT22;8661;45.700;4.880;2023-09-12T01:47:52;21.90;71.80
17092;DHT22;8661;45.700;4.880;2023-09-12T01:50:20;21.90;72.10
17092;DHT22;8661;45.700;4.880;2023-09-12T01:52:47;21.80;72.50
17092;DHT22;8661;45.700;4.880;2023-09-12T01:55:14;21.70;72.70
17092;DHT22;8661;45.700;4.880;2023-09-12T01:57:42;21.60;73.10
17092;DHT22;8661;45.700;4.880;2023-09-12T02:00:11;21.50;73.60
17092;DHT22;8661;45.700;4.880;2023-09-12T02:02:39;21.40;73.80
17092;DHT22;8661;45.700;4.880;2023-09-12T02:05:10;21.40;74.00
17092;DHT22;8661;45.700;4.880;2023-09-12T02:07:39;21.30;74.30
17092;DHT22;8661;45.700;4.880;2023-09-12T02:10:07;21.30;74.60
17092;DHT22;8661;45.700;4.880;2023-09-12T02:12:35;21.20;74.90
17092;DHT22;8661;45.700;4.880;2023-09-12T02:15:02;21.10;75.10
17092;DHT22;8661;45.700;4.880;2023-09-12T02:17:31;21.10;75.20
17092;DHT22;8661;45.700;4.880;2023-09-12T02:19:58;21.10;75.30
17092;DHT22;8661;45.700;4.880;2023-09-12T02:22:24;21.00;75.60
17092;DHT22;8661;45.700;4.880;2023-09-12T02:24:51;21.00;75.70
17092;DHT22;8661;45.700;4.880;2023-09-12T02:27:18;20.90;75.80
17092;DHT22;8661;45.700;4.880;2023-09-12T02:29:45;20.90;76.10
17092;DHT22;8661;45.700;4.880;2023-09-12T02:32:12;20.90;76.30
17092;DHT22;8661;45.700;4.880;2023-09-12T02:34:41;20.90;76.40
17092;DHT22;8661;45.700;4.880;2023-09-12T02:37:07;20.90;76.50
17092;DHT22;8661;45.700;4.880;2023-09-12T02:39:34;20.90;77.70
17092;DHT22;8661;45.700;4.880;2023-09-12T02:42:01;20.90;76.90
17092;DHT22;8661;45.700;4.880;2023-09-12T02:44:28;20.90;76.90
17092;DHT22;8661;45.700;4.880;2023-09-12T02:46:55;20.90;77.00
17092;DHT22;8661;45.700;4.880;2023-09-12T02:49:22;20.90;76.90
17092;DHT22;8661;45.700;4.880;2023-09-12T02:51:50;20.80;76.90
17092;DHT22;8661;45.700;4.880;2023-09-12T02:54:17;20.90;77.00
17092;DHT22;8661;45.700;4.880;2023-09-12T02:56:44;20.90;77.00
17092;DHT22;8661;45.700;4.880;2023-09-12T02:59:11;20.90;77.00
17092;DHT22;8661;45.700;4.880;2023-09-12T03:01:38;20.90;77.10
17092;DHT22;8661;45.700;4.880;2023-09-12T03:04:05;20.80;77.10
17092;DHT22;8661;45.700;4.880;2023-09-12T03:06:31;20.80;77.30
17092;DHT22;8661;45.700;4.880;2023-09-12T03:09:00;20.80;77.50
17092;DHT22;8661;45.700;4.880;2023-09-12T03:11:27;20.80;77.30
17092;DHT22;8661;45.700;4.880;2023-09-12T03:13:55;20.80;77.10
17092;DHT22;8661;45.700;4.880;2023-09-12T03:16:22;20.80;77.00
17092;DHT22;8661;45.700;4.880;2023-09-12T03:18:49;20.80;76.90
17092;DHT22;8661;45.700;4.880;2023-09-12T03:21:16;20.80;76.50
17092;DHT22;8661;45.700;4.880;2023-09-12T03:23:43;20.80;76.10
17092;DHT22;8661;45.700;4.880;2023-09-12T03:26:12;20.90;75.50
17092;DHT22;8661;45.700;4.880;2023-09-12T03:28:39;20.90;75.10
17092;DHT22;8661;45.700;4.880;2023-09-12T03:31:07;21.00;75.00
17092;DHT22;8661;45.700;4.880;2023-09-12T03:33:37;21.00;75.00
17092;DHT22;8661;45.700;4.880;2023-09-12T03:36:04;21.00;75.00
17092;DHT22;8661;45.700;4.880;2023-09-12T03:38:32;20.90;75.00
17092;DHT22;8661;45.700;4.880;2023-09-12T03:40:59;20.90;75.10
17092;DHT22;8661;45.700;4.880;2023-09-12T03:43:27;20.90;75.10
17092;DHT22;8661;45.700;4.880;2023-09-12T03:45:54;20.90;74.90
17092;DHT22;8661;45.700;4.880;2023-09-12T03:48:21;20.90;75.10
17092;DHT22;8661;45.700;4.880;2023-09-12T03:50:48;20.90;75.20
17092;DHT22;8661;45.700;4.880;2023-09-12T03:53:15;20.90;75.40
17092;DHT22;8661;45.700;4.880;2023-09-12T03:55:42;20.80;75.50
17092;DHT22;8661;45.700;4.880;2023-09-12T03:58:09;20.80;75.70
17092;DHT22;8661;45.700;4.880;2023-09-12T04:00:37;20.80;75.90
17092;DHT22;8661;45.700;4.880;2023-09-12T04:03:04;20.70;76.10
17092;DHT22;8661;45.700;4.880;2023-09-12T04:05:31;20.70;76.30
17092;DHT22;8661;45.700;4.880;2023-09-12T04:07:58;20.60;76.40
17092;DHT22;8661;45.700;4.880;2023-09-12T04:10:24;20.60;76.60
17092;DHT22;8661;45.700;4.880;2023-09-12T04:12:51;20.60;76.90
17092;DHT22;8661;45.700;4.880;2023-09-12T04:15:18;20.50;76.90
17092;DHT22;8661;45.700;4.880;2023-09-12T04:17:47;20.50;77.10
17092;DHT22;8661;45.700;4.880;2023-09-12T04:20:14;20.50;77.20
17092;DHT22;8661;45.700;4.880;2023-09-12T04:22:41;20.50;77.30
17092;DHT22;8661;45.700;4.880;2023-09-12T04:25:09;20.40;77.40
17092;DHT22;8661;45.700;4.880;2023-09-12T04:27:35;20.40;77.60
17092;DHT22;8661;45.700;4.880;2023-09-12T04:30:04;20.40;77.80
17092;DHT22;8661;45.700;4.880;2023-09-12T04:32:31;20.40;77.90
17092;DHT22;8661;45.700;4.880;2023-09-12T04:34:59;20.30;77.90
17092;DHT22;8661;45.700;4.880;2023-09-12T04:37:26;20.30;78.10
17092;DHT22;8661;45.700;4.880;2023-09-12T04:39:53;20.30;78.40
17092;DHT22;8661;45.700;4.880;2023-09-12T04:42:20;20.30;78.50
17092;DHT22;8661;45.700;4.880;2023-09-12T04:44:47;20.20;79.70
17092;DHT22;8661;45.700;4.880;2023-09-12T04:47:13;20.10;79.80
17092;DHT22;8661;45.700;4.880;2023-09-12T04:49:43;20.10;79.30
17092;DHT22;8661;45.700;4.880;2023-09-12T04:52:12;20.00;79.40
17092;DHT22;8661;45.700;4.880;2023-09-12T04:54:38;20.00;79.70
17092;DHT22;8661;45.700;4.880;2023-09-12T04:57:06;20.00;80.30
17092;DHT22;8661;45.700;4.880;2023-09-12T04:59:32;20.10;80.60
17092;DHT22;8661;45.700;4.880;2023-09-12T05:01:59;20.10;81.00
17092;DHT22;8661;45.700;4.880;2023-09-12T05:04:26;20.10;81.20
17092;DHT22;8661;45.700;4.880;2023-09-12T05:06:53;20.10;81.50
17092;DHT22;8661;45.700;4.880;2023-09-12T05:09:21;20.10;81.60
17092;DHT22;8661;45.700;4.880;2023-09-12T05:11:48;20.10;81.80
17092;DHT22;8661;45.700;4.880;2023-09-12T05:14:15;20.10;82.10
17092;DHT22;8661;45.700;4.880;2023-09-12T05:16:42;20.10;82.70
17092;DHT22;8661;45.700;4.880;2023-09-12T05:19:09;20.10;82.90
17092;DHT22;8661;45.700;4.880;2023-09-12T05:21:37;20.10;83.30
17092;DHT22;8661;45.700;4.880;2023-09-12T05:24:06;20.10;83.40
17092;DHT22;8661;45.700;4.880;2023-09-12T05:26:35;20.10;83.50
17092;DHT22;8661;45.700;4.880;2023-09-12T05:29:02;20.10;83.90
17092;DHT22;8661;45.700;4.880;2023-09-12T05:31:28;20.10;83.90
17092;DHT22;8661;45.700;4.880;2023-09-12T05:33:58;20.10;83.90
17092;DHT22;8661;45.700;4.880;2023-09-12T05:36:25;20.10;84.10
17092;DHT22;8661;45.700;4.880;2023-09-12T05:38:52;20.10;84.30
17092;DHT22;8661;45.700;4.880;2023-09-12T05:41:18;20.00;84.50
17092;DHT22;8661;45.700;4.880;2023-09-12T05:43:47;20.10;84.50
17092;DHT22;8661;45.700;4.880;2023-09-12T05:46:13;20.00;84.30
17092;DHT22;8661;45.700;4.880;2023-09-12T05:48:40;20.10;84.50
17092;DHT22;8661;45.700;4.880;2023-09-12T05:51:07;20.20;84.40
17092;DHT22;8661;45.700;4.880;2023-09-12T05:53:34;20.30;84.30
17092;DHT22;8661;45.700;4.880;2023-09-12T05:56:01;20.30;84.10
17092;DHT22;8661;45.700;4.880;2023-09-12T05:58:28;20.30;84.10
17092;DHT22;8661;45.700;4.880;2023-09-12T06:00:57;20.30;84.40
17092;DHT22;8661;45.700;4.880;2023-09-12T06:03:24;20.20;84.50
17092;DHT22;8661;45.700;4.880;2023-09-12T06:05:50;20.20;84.70
17092;DHT22;8661;45.700;4.880;2023-09-12T06:08:17;20.20;84.70
17092;DHT22;8661;45.700;4.880;2023-09-12T06:10:44;20.20;84.70
17092;DHT22;8661;45.700;4.880;2023-09-12T06:13:11;20.10;84.80
17092;DHT22;8661;45.700;4.880;2023-09-12T06:15:38;20.20;85.00
17092;DHT22;8661;45.700;4.880;2023-09-12T06:18:08;20.20;85.00
17092;DHT22;8661;45.700;4.880;2023-09-12T06:20:34;20.20;84.70
17092;DHT22;8661;45.700;4.880;2023-09-12T06:23:01;20.20;84.70
17092;DHT22;8661;45.700;4.880;2023-09-12T06:25:29;20.30;85.00
17092;DHT22;8661;45.700;4.880;2023-09-12T06:27:56;20.30;85.00
17092;DHT22;8661;45.700;4.880;2023-09-12T06:30:22;20.30;85.00
17092;DHT22;8661;45.700;4.880;2023-09-12T06:32:49;20.40;84.90
17092;DHT22;8661;45.700;4.880;2023-09-12T06:35:17;20.50;84.80
17092;DHT22;8661;45.700;4.880;2023-09-12T06:37:44;20.50;84.70
17092;DHT22;8661;45.700;4.880;2023-09-12T06:40:12;20.60;84.70
17092;DHT22;8661;45.700;4.880;2023-09-12T06:42:39;20.70;84.50
17092;DHT22;8661;45.700;4.880;2023-09-12T06:45:07;21.00;84.10
17092;DHT22;8661;45.700;4.880;2023-09-12T06:47:34;21.20;83.80
17092;DHT22;8661;45.700;4.880;2023-09-12T06:50:02;21.20;83.40
17092;DHT22;8661;45.700;4.880;2023-09-12T06:52:30;21.40;83.60
17092;DHT22;8661;45.700;4.880;2023-09-12T06:54:57;21.80;82.70
17092;DHT22;8661;45.700;4.880;2023-09-12T06:57:24;21.80;82.20
17092;DHT22;8661;45.700;4.880;2023-09-12T06:59:51;21.90;82.20
17092;DHT22;8661;45.700;4.880;2023-09-12T07:02:17;22.00;81.80
17092;DHT22;8661;45.700;4.880;2023-09-12T07:04:44;22.20;81.40
17092;DHT22;8661;45.700;4.880;2023-09-12T07:07:11;22.30;81.30
17092;DHT22;8661;45.700;4.880;2023-09-12T07:09:39;22.50;80.50
17092;DHT22;8661;45.700;4.880;2023-09-12T07:12:07;22.60;80.10
17092;DHT22;8661;45.700;4.880;2023-09-12T07:14:34;22.80;79.40
17092;DHT22;8661;45.700;4.880;2023-09-12T07:17:05;22.90;79.00
17092;DHT22;8661;45.700;4.880;2023-09-12T07:19:32;22.90;78.70
17092;DHT22;8661;45.700;4.880;2023-09-12T07:21:58;23.20;78.80
17092;DHT22;8661;45.700;4.880;2023-09-12T07:24:26;23.50;77.30
17092;DHT22;8661;45.700;4.880;2023-09-12T07:26:54;23.70;76.90
17092;DHT22;8661;45.700;4.880;2023-09-12T07:29:21;23.80;77.70
17092;DHT22;8661;45.700;4.880;2023-09-12T07:31:48;23.90;76.20
17092;DHT22;8661;45.700;4.880;2023-09-12T07:34:18;23.70;76.60
17092;DHT22;8661;45.700;4.880;2023-09-12T07:36:44;23.60;77.10
17092;DHT22;8661;45.700;4.880;2023-09-12T07:39:11;24.00;76.60
17092;DHT22;8661;45.700;4.880;2023-09-12T07:41:38;24.40;74.50
17092;DHT22;8661;45.700;4.880;2023-09-12T07:44:06;24.40;74.90
17092;DHT22;8661;45.700;4.880;2023-09-12T07:46:36;24.40;73.80
17092;DHT22;8661;45.700;4.880;2023-09-12T07:49:03;24.20;74.60
17092;DHT22;8661;45.700;4.880;2023-09-12T07:51:30;24.20;74.20
17092;DHT22;8661;45.700;4.880;2023-09-12T07:53:57;24.90;73.20
17092;DHT22;8661;45.700;4.880;2023-09-12T07:56:24;25.60;71.10
17092;DHT22;8661;45.700;4.880;2023-09-12T07:58:51;26.20;70.10
17092;DHT22;8661;45.700;4.880;2023-09-12T08:01:19;26.60;68.90
17092;DHT22;8661;45.700;4.880;2023-09-12T08:03:46;27.00;68.10
17092;DHT22;8661;45.700;4.880;2023-09-12T08:06:13;27.30;67.50
17092;DHT22;8661;45.700;4.880;2023-09-12T08:08:40;27.20;66.30
17092;DHT22;8661;45.700;4.880;2023-09-12T08:11:06;27.70;66.10
17092;DHT22;8661;45.700;4.880;2023-09-12T08:13:33;28.00;64.60
17092;DHT22;8661;45.700;4.880;2023-09-12T08:16:00;28.20;64.30
17092;DHT22;8661;45.700;4.880;2023-09-12T08:18:29;28.50;63.80
17092;DHT22;8661;45.700;4.880;2023-09-12T08:20:57;28.70;63.10
17092;DHT22;8661;45.700;4.880;2023-09-12T08:23:24;29.00;62.80
17092;DHT22;8661;45.700;4.880;2023-09-12T08:25:51;29.50;61.70
17092;DHT22;8661;45.700;4.880;2023-09-12T08:28:17;29.60;61.50
17092;DHT22;8661;45.700;4.880;2023-09-12T08:30:44;29.60;61.30
17092;DHT22;8661;45.700;4.880;2023-09-12T08:33:11;29.80;61.00
17092;DHT22;8661;45.700;4.880;2023-09-12T08:35:40;30.10;60.20
17092;DHT22;8661;45.700;4.880;2023-09-12T08:38:07;30.40;60.00
17092;DHT22;8661;45.700;4.880;2023-09-12T08:40:34;31.00;59.20
17092;DHT22;8661;45.700;4.880;2023-09-12T08:43:02;31.20;58.40
17092;DHT22;8661;45.700;4.880;2023-09-12T08:45:30;31.50;58.20
17092;DHT22;8661;45.700;4.880;2023-09-12T08:47:59;31.70;57.60
17092;DHT22;8661;45.700;4.880;2023-09-12T08:50:26;32.00;57.00
17092;DHT22;8661;45.700;4.880;2023-09-12T08:52:57;32.40;57.20
17092;DHT22;8661;45.700;4.880;2023-09-12T08:55:24;32.70;56.20
17092;DHT22;8661;45.700;4.880;2023-09-12T08:57:53;32.80;56.00
17092;DHT22;8661;45.700;4.880;2023-09-12T09:00:22;32.70;55.70
17092;DHT22;8661;45.700;4.880;2023-09-12T09:02:50;33.00;55.30
17092;DHT22;8661;45.700;4.880;2023-09-12T09:05:17;33.40;54.90
17092;DHT22;8661;45.700;4.880;2023-09-12T09:07:47;33.50;54.60
17092;DHT22;8661;45.700;4.880;2023-09-12T09:10:17;33.60;55.00
17092;DHT22;8661;45.700;4.880;2023-09-12T09:12:45;33.70;53.80
17092;DHT22;8661;45.700;4.880;2023-09-12T09:15:25;33.50;53.40
17092;DHT22;8661;45.700;4.880;2023-09-12T09:17:53;33.30;53.10
17092;DHT22;8661;45.700;4.880;2023-09-12T09:20:29;33.30;53.30
17092;DHT22;8661;45.700;4.880;2023-09-12T09:23:00;33.30;53.00
17092;DHT22;8661;45.700;4.880;2023-09-12T09:25:28;33.60;53.00
17092;DHT22;8661;45.700;4.880;2023-09-12T09:27:56;33.70;52.50
17092;DHT22;8661;45.700;4.880;2023-09-12T09:30:43;34.20;52.40
17092;DHT22;8661;45.700;4.880;2023-09-12T09:33:11;34.70;52.40
17092;DHT22;8661;45.700;4.880;2023-09-12T09:35:38;35.10;50.90
17092;DHT22;8661;45.700;4.880;2023-09-12T09:38:08;35.20;50.50
17092;DHT22;8661;45.700;4.880;2023-09-12T09:40:36;35.30;50.20
17092;DHT22;8661;45.700;4.880;2023-09-12T09:43:04;35.30;49.90
17092;DHT22;8661;45.700;4.880;2023-09-12T09:45:31;35.40;50.50
17092;DHT22;8661;45.700;4.880;2023-09-12T09:47:58;35.70;49.60
17092;DHT22;8661;45.700;4.880;2023-09-12T09:50:26;36.00;49.50
17092;DHT22;8661;45.700;4.880;2023-09-12T09:52:54;36.70;48.80
17092;DHT22;8661;45.700;4.880;2023-09-12T09:55:23;36.80;48.40
17092;DHT22;8661;45.700;4.880;2023-09-12T09:57:52;37.20;48.00
17092;DHT22;8661;45.700;4.880;2023-09-12T10:00:21;37.70;47.30
17092;DHT22;8661;45.700;4.880;2023-09-12T10:02:50;38.10;46.60
17092;DHT22;8661;45.700;4.880;2023-09-12T10:05:18;38.50;46.60
17092;DHT22;8661;45.700;4.880;2023-09-12T10:07:47;38.80;45.80
17092;DHT22;8661;45.700;4.880;2023-09-12T10:10:16;38.80;45.60
17092;DHT22;8661;45.700;4.880;2023-09-12T10:12:49;38.70;45.50
17092;DHT22;8661;45.700;4.880;2023-09-12T10:15:18;38.60;45.10
17092;DHT22;8661;45.700;4.880;2023-09-12T10:17:47;38.80;45.10
17092;DHT22;8661;45.700;4.880;2023-09-12T10:20:21;39.20;44.70
17092;DHT22;8661;45.700;4.880;2023-09-12T10:22:56;39.70;43.90
17092;DHT22;8661;45.700;4.880;2023-09-12T10:25:28;39.70;43.70
17092;DHT22;8661;45.700;4.880;2023-09-12T10:27:55;39.80;43.90
17092;DHT22;8661;45.700;4.880;2023-09-12T10:30:24;39.90;43.80
17092;DHT22;8661;45.700;4.880;2023-09-12T10:32:52;39.60;44.00
17092;DHT22;8661;45.700;4.880;2023-09-12T10:35:19;39.50;44.00
17092;DHT22;8661;45.700;4.880;2023-09-12T10:37:49;40.00;43.60
17092;DHT22;8661;45.700;4.880;2023-09-12T10:40:17;40.30;43.60
17092;DHT22;8661;45.700;4.880;2023-09-12T10:42:44;40.10;43.10
17092;DHT22;8661;45.700;4.880;2023-09-12T10:45:13;39.70;43.40
17092;DHT22;8661;45.700;4.880;2023-09-12T10:47:41;39.50;44.10
17092;DHT22;8661;45.700;4.880;2023-09-12T10:50:09;39.50;44.10
17092;DHT22;8661;45.700;4.880;2023-09-12T10:52:39;39.20;44.50
17092;DHT22;8661;45.700;4.880;2023-09-12T10:55:07;38.80;44.60
17092;DHT22;8661;45.700;4.880;2023-09-12T10:57:34;38.80;44.40
17092;DHT22;8661;45.700;4.880;2023-09-12T11:00:12;39.00;43.50
17092;DHT22;8661;45.700;4.880;2023-09-12T11:02:42;39.20;43.50
17092;DHT22;8661;45.700;4.880;2023-09-12T11:05:35;39.70;43.70
17092;DHT22;8661;45.700;4.880;2023-09-12T11:08:03;39.90;42.80
17092;DHT22;8661;45.700;4.880;2023-09-12T11:10:31;40.00;43.20
17092;DHT22;8661;45.700;4.880;2023-09-12T11:12:59;39.70;43.40
17092;DHT22;8661;45.700;4.880;2023-09-12T11:15:27;39.50;42.80
17092;DHT22;8661;45.700;4.880;2023-09-12T11:18:03;39.70;43.50
17092;DHT22;8661;45.700;4.880;2023-09-12T11:20:51;40.20;43.60
17092;DHT22;8661;45.700;4.880;2023-09-12T11:23:20;40.80;42.70
17092;DHT22;8661;45.700;4.880;2023-09-12T11:25:49;40.80;42.50
17092;DHT22;8661;45.700;4.880;2023-09-12T11:28:31;40.50;43.00
17092;DHT22;8661;45.700;4.880;2023-09-12T11:30:58;40.60;42.60
17092;DHT22;8661;45.700;4.880;2023-09-12T11:33:28;40.60;43.20
17092;DHT22;8661;45.700;4.880;2023-09-12T11:35:55;40.80;42.90
17092;DHT22;8661;45.700;4.880;2023-09-12T11:38:30;41.40;43.50
17092;DHT22;8661;45.700;4.880;2023-09-12T11:40:58;42.00;42.50
17092;DHT22;8661;45.700;4.880;2023-09-12T11:43:27;42.20;41.60
17092;DHT22;8661;45.700;4.880;2023-09-12T11:45:55;42.20;41.40
17092;DHT22;8661;45.700;4.880;2023-09-12T11:48:23;42.10;41.30
17092;DHT22;8661;45.700;4.880;2023-09-12T11:50:53;42.00;41.40
17092;DHT22;8661;45.700;4.880;2023-09-12T11:53:22;41.70;41.70
17092;DHT22;8661;45.700;4.880;2023-09-12T11:55:53;41.60;42.00
17092;DHT22;8661;45.700;4.880;2023-09-12T11:58:21;41.50;42.20
17092;DHT22;8661;45.700;4.880;2023-09-12T12:00:50;40.90;42.40
17092;DHT22;8661;45.700;4.880;2023-09-12T12:03:22;40.80;42.80
17092;DHT22;8661;45.700;4.880;2023-09-12T12:05:52;41.20;43.10
17092;DHT22;8661;45.700;4.880;2023-09-12T12:08:21;41.80;42.30
17092;DHT22;8661;45.700;4.880;2023-09-12T12:10:52;41.50;42.10
17092;DHT22;8661;45.700;4.880;2023-09-12T12:13:21;40.80;42.70
17092;DHT22;8661;45.700;4.880;2023-09-12T12:15:49;40.80;43.30
17092;DHT22;8661;45.700;4.880;2023-09-12T12:18:17;41.30;43.30
17092;DHT22;8661;45.700;4.880;2023-09-12T12:20:44;41.80;42.30
17092;DHT22;8661;45.700;4.880;2023-09-12T12:23:13;41.70;42.20
17092;DHT22;8661;45.700;4.880;2023-09-12T12:25:41;41.60;42.60
17092;DHT22;8661;45.700;4.880;2023-09-12T12:28:08;41.50;42.90
17092;DHT22;8661;45.700;4.880;2023-09-12T12:30:36;41.50;43.10
17092;DHT22;8661;45.700;4.880;2023-09-12T12:33:08;41.60;42.70
17092;DHT22;8661;45.700;4.880;2023-09-12T12:35:35;41.30;42.90
17092;DHT22;8661;45.700;4.880;2023-09-12T12:38:03;41.30;42.80
17092;DHT22;8661;45.700;4.880;2023-09-12T12:40:37;41.20;42.70
17092;DHT22;8661;45.700;4.880;2023-09-12T12:43:05;41.10;43.10
17092;DHT22;8661;45.700;4.880;2023-09-12T12:45:52;41.60;42.90
17092;DHT22;8661;45.700;4.880;2023-09-12T12:48:29;41.40;42.70
17092;DHT22;8661;45.700;4.880;2023-09-12T12:50:56;41.20;42.80
17092;DHT22;8661;45.700;4.880;2023-09-12T12:53:39;41.30;43.10
17092;DHT22;8661;45.700;4.880;2023-09-12T12:56:12;41.00;42.80
17092;DHT22;8661;45.700;4.880;2023-09-12T12:58:46;40.80;43.80
17092;DHT22;8661;45.700;4.880;2023-09-12T13:01:14;41.10;43.50
17092;DHT22;8661;45.700;4.880;2023-09-12T13:03:42;41.40;43.20
17092;DHT22;8661;45.700;4.880;2023-09-12T13:06:09;41.40;42.80
17092;DHT22;8661;45.700;4.880;2023-09-12T13:08:40;41.40;43.20
17092;DHT22;8661;45.700;4.880;2023-09-12T13:11:10;41.50;43.00
17092;DHT22;8661;45.700;4.880;2023-09-12T13:13:39;41.30;43.00
17092;DHT22;8661;45.700;4.880;2023-09-12T13:16:09;40.90;43.40
17092;DHT22;8661;45.700;4.880;2023-09-12T13:18:37;40.30;43.80
17092;DHT22;8661;45.700;4.880;2023-09-12T13:21:05;39.80;44.80
17092;DHT22;8661;45.700;4.880;2023-09-12T13:23:35;39.70;44.90
17092;DHT22;8661;45.700;4.880;2023-09-12T13:26:03;39.50;45.10
17092;DHT22;8661;45.700;4.880;2023-09-12T13:28:33;39.00;45.40
17092;DHT22;8661;45.700;4.880;2023-09-12T13:31:00;39.00;45.50
17092;DHT22;8661;45.700;4.880;2023-09-12T13:33:28;38.70;45.70
17092;DHT22;8661;45.700;4.880;2023-09-12T13:35:56;38.40;46.00
17092;DHT22;8661;45.700;4.880;2023-09-12T13:38:24;38.40;46.10
17092;DHT22;8661;45.700;4.880;2023-09-12T13:40:52;39.10;46.90
17092;DHT22;8661;45.700;4.880;2023-09-12T13:43:21;39.50;45.00
17092;DHT22;8661;45.700;4.880;2023-09-12T13:45:51;39.20;45.30
17092;DHT22;8661;45.700;4.880;2023-09-12T13:48:19;38.60;46.10
17092;DHT22;8661;45.700;4.880;2023-09-12T13:50:46;38.40;46.40
17092;DHT22;8661;45.700;4.880;2023-09-12T13:53:14;38.00;46.70
17092;DHT22;8661;45.700;4.880;2023-09-12T13:55:41;37.80;47.30
17092;DHT22;8661;45.700;4.880;2023-09-12T13:58:08;38.10;47.10
17092;DHT22;8661;45.700;4.880;2023-09-12T14:00:36;38.30;47.10
17092;DHT22;8661;45.700;4.880;2023-09-12T14:03:06;38.50;46.80
17092;DHT22;8661;45.700;4.880;2023-09-12T14:05:33;38.60;46.50
17092;DHT22;8661;45.700;4.880;2023-09-12T14:08:01;38.30;47.00
17092;DHT22;8661;45.700;4.880;2023-09-12T14:10:28;37.90;47.10
17092;DHT22;8661;45.700;4.880;2023-09-12T14:12:57;37.60;47.30
17092;DHT22;8661;45.700;4.880;2023-09-12T14:15:24;37.10;47.70
17092;DHT22;8661;45.700;4.880;2023-09-12T14:17:51;36.50;48.40
17092;DHT22;8661;45.700;4.880;2023-09-12T14:20:20;35.80;49.30
17092;DHT22;8661;45.700;4.880;2023-09-12T14:22:48;35.40;50.20
17092;DHT22;8661;45.700;4.880;2023-09-12T14:25:16;35.00;50.60
17092;DHT22;8661;45.700;4.880;2023-09-12T14:27:45;34.60;51.20
17092;DHT22;8661;45.700;4.880;2023-09-12T14:30:12;34.30;51.90
17092;DHT22;8661;45.700;4.880;2023-09-12T14:32:40;34.10;52.50
17092;DHT22;8661;45.700;4.880;2023-09-12T14:35:07;33.70;53.20
17092;DHT22;8661;45.700;4.880;2023-09-12T14:37:39;33.20;54.60
17092;DHT22;8661;45.700;4.880;2023-09-12T14:40:08;32.70;55.70
17092;DHT22;8661;45.700;4.880;2023-09-12T14:42:36;32.40;56.40
17092;DHT22;8661;45.700;4.880;2023-09-12T14:45:05;31.90;57.50
17092;DHT22;8661;45.700;4.880;2023-09-12T14:47:32;31.60;58.20
17092;DHT22;8661;45.700;4.880;2023-09-12T14:49:59;31.50;58.40
17092;DHT22;8661;45.700;4.880;2023-09-12T14:52:27;31.40;58.80
17092;DHT22;8661;45.700;4.880;2023-09-12T14:54:57;31.10;59.60
17092;DHT22;8661;45.700;4.880;2023-09-12T14:57:25;30.70;60.60
17092;DHT22;8661;45.700;4.880;2023-09-12T14:59:53;30.60;61.40
17092;DHT22;8661;45.700;4.880;2023-09-12T15:02:21;30.40;61.80
17092;DHT22;8661;45.700;4.880;2023-09-12T15:04:49;30.30;62.80
17092;DHT22;8661;45.700;4.880;2023-09-12T15:07:16;30.20;63.40
17092;DHT22;8661;45.700;4.880;2023-09-12T15:09:43;29.90;64.50
17092;DHT22;8661;45.700;4.880;2023-09-12T15:12:13;29.70;65.50
17092;DHT22;8661;45.700;4.880;2023-09-12T15:14:40;29.50;66.70
17092;DHT22;8661;45.700;4.880;2023-09-12T15:17:07;29.40;68.00
17092;DHT22;8661;45.700;4.880;2023-09-12T15:19:35;29.30;69.30
17092;DHT22;8661;45.700;4.880;2023-09-12T15:22:03;29.10;69.30
17092;DHT22;8661;45.700;4.880;2023-09-12T15:24:30;28.80;70.00
17092;DHT22;8661;45.700;4.880;2023-09-12T15:26:56;28.70;70.60
17092;DHT22;8661;45.700;4.880;2023-09-12T15:29:25;28.60;71.10
17092;DHT22;8661;45.700;4.880;2023-09-12T15:31:53;28.50;71.90
17092;DHT22;8661;45.700;4.880;2023-09-12T15:34:20;28.50;72.10
17092;DHT22;8661;45.700;4.880;2023-09-12T15:36:47;28.40;72.90
17092;DHT22;8661;45.700;4.880;2023-09-12T15:39:15;28.20;73.50
17092;DHT22;8661;45.700;4.880;2023-09-12T15:41:42;28.10;74.70
17092;DHT22;8661;45.700;4.880;2023-09-12T15:44:12;28.00;75.30
17092;DHT22;8661;45.700;4.880;2023-09-12T15:46:40;27.90;76.00
17092;DHT22;8661;45.700;4.880;2023-09-12T15:49:07;27.80;76.70
17092;DHT22;8661;45.700;4.880;2023-09-12T15:51:34;27.80;77.10